Airport View

Enter AWOS ICAO identifier for current METAR.

ex. KFNL

KUAO 011353Z AUTO 00000KT 1/4SM FG VV002 12/11 A3018 RMK AO2 SLP217 T01170111

1 Oct 2020 14:23

Frequency: 118.525

Phone: 503-678-3011

Other Area AWOS: KMMV - KHIO - KPDX - KSLE

KUAO 011349Z 0114/0212 00000KT 1/4SM FG VV002 FM011700 VRB03KT P6SM SKC